createdAt,value
2022-08-03T00:00:17.355Z,0.00
2022-08-03T00:01:17.590Z,0.00
2022-08-03T00:02:17.652Z,0.00
2022-08-03T00:03:17.411Z,0.00
2022-08-03T00:04:17.320Z,0.00
2022-08-03T00:05:17.312Z,0.00
2022-08-03T00:06:17.293Z,0.00
2022-08-03T00:07:17.302Z,0.00
2022-08-03T00:08:17.293Z,0.00
2022-08-03T00:09:17.263Z,0.00
2022-08-03T00:10:17.244Z,0.00
2022-08-03T00:11:17.263Z,0.00
2022-08-03T00:12:17.467Z,0.00
2022-08-03T00:13:17.201Z,0.00
2022-08-03T00:14:17.492Z,0.00
2022-08-03T00:15:17.235Z,0.00
2022-08-03T00:16:17.162Z,0.00
2022-08-03T00:17:17.167Z,0.00
2022-08-03T00:18:17.142Z,0.00
2022-08-03T00:19:17.444Z,0.00
2022-08-03T00:20:17.128Z,0.00
2022-08-03T00:21:17.105Z,0.00
2022-08-03T00:22:17.221Z,0.00
2022-08-03T00:23:17.084Z,0.00
2022-08-03T00:24:17.395Z,0.00
2022-08-03T00:25:17.057Z,0.00
2022-08-03T00:26:17.056Z,0.00
2022-08-03T00:27:17.037Z,0.00
2022-08-03T00:28:17.017Z,0.00
2022-08-03T00:29:17.027Z,0.00
2022-08-03T00:30:17.320Z,0.00
2022-08-03T00:31:17.962Z,0.00
2022-08-03T00:32:18.050Z,0.00
2022-08-03T00:33:16.967Z,0.00
2022-08-03T00:34:16.949Z,0.00
2022-08-03T00:35:37.112Z,0.00
2022-08-03T00:36:17.943Z,0.00
2022-08-03T00:37:16.944Z,0.00
2022-08-03T00:38:16.901Z,0.00
2022-08-03T00:39:16.906Z,0.00
2022-08-03T00:40:16.894Z,0.00
2022-08-03T00:41:17.116Z,0.00
2022-08-03T00:42:17.122Z,0.00
2022-08-03T00:43:16.868Z,0.00
2022-08-03T00:44:16.850Z,0.00
2022-08-03T00:45:16.831Z,0.00
2022-08-03T00:46:21.373Z,0.00
2022-08-03T00:47:17.805Z,0.00
2022-08-03T00:48:19.582Z,0.00
2022-08-03T00:49:17.805Z,0.00
2022-08-03T00:50:16.765Z,0.00
2022-08-03T00:51:16.769Z,0.00
2022-08-03T00:52:17.068Z,0.00
2022-08-03T00:53:16.946Z,0.00
2022-08-03T00:54:16.716Z,0.00
2022-08-03T00:55:16.722Z,0.00
2022-08-03T00:56:16.728Z,0.00
2022-08-03T00:57:16.705Z,0.00
2022-08-03T00:58:16.692Z,0.00
2022-08-03T00:59:16.978Z,0.00
2022-08-03T01:00:16.654Z,0.00
2022-08-03T01:01:16.723Z,0.00
2022-08-03T01:02:16.937Z,0.00
2022-08-03T01:03:16.618Z,0.00
2022-08-03T01:04:16.601Z,0.00
2022-08-03T01:05:16.910Z,0.00
2022-08-03T01:06:16.593Z,0.00
2022-08-03T01:07:16.571Z,0.00
2022-08-03T01:08:16.566Z,0.00
2022-08-03T01:09:16.572Z,0.00
2022-08-03T01:10:16.782Z,0.00
2022-08-03T01:11:16.522Z,0.00
2022-08-03T01:12:16.751Z,0.00
2022-08-03T01:14:02.047Z,0.00
2022-08-03T01:14:19.375Z,0.00
2022-08-03T01:15:16.474Z,0.00
2022-08-03T01:16:16.804Z,0.00
2022-08-03T01:17:16.468Z,0.00
2022-08-03T01:18:16.466Z,0.00
2022-08-03T01:19:16.448Z,0.00
2022-08-03T01:20:16.415Z,0.00
2022-08-03T01:21:16.415Z,0.00
2022-08-03T01:22:16.983Z,0.00
2022-08-03T01:23:16.401Z,0.00
2022-08-03T01:24:16.380Z,0.00
2022-08-03T01:25:16.390Z,0.00
2022-08-03T01:26:16.360Z,0.00
2022-08-03T01:27:16.337Z,0.00
2022-08-03T01:28:16.651Z,0.00
2022-08-03T01:29:16.322Z,0.00
2022-08-03T01:30:16.315Z,0.00
2022-08-03T01:31:16.308Z,0.00
2022-08-03T01:33:00.339Z,0.00
2022-08-03T01:33:17.467Z,0.00
2022-08-03T01:34:16.280Z,0.00
2022-08-03T01:35:16.240Z,0.00
2022-08-03T01:36:16.244Z,0.00
2022-08-03T01:37:16.222Z,0.00
2022-08-03T01:38:16.424Z,0.00
2022-08-03T01:39:16.226Z,0.00
2022-08-03T01:40:16.195Z,0.00
2022-08-03T01:41:16.186Z,0.00
2022-08-03T01:42:16.431Z,0.00
2022-08-03T01:43:55.431Z,0.00
2022-08-03T01:44:29.641Z,0.00
2022-08-03T01:45:17.123Z,0.00
2022-08-03T01:46:16.314Z,0.00
2022-08-03T01:47:16.118Z,0.00
2022-08-03T01:48:16.105Z,0.00
2022-08-03T01:49:16.170Z,0.00
2022-08-03T01:50:16.137Z,0.00
2022-08-03T01:51:16.077Z,0.00
2022-08-03T01:52:16.541Z,0.00
2022-08-03T01:53:16.046Z,0.00
2022-08-03T01:54:16.038Z,0.00
2022-08-03T01:55:16.026Z,0.00
2022-08-03T01:56:16.057Z,0.00
2022-08-03T01:57:15.988Z,0.00
2022-08-03T01:58:16.417Z,0.00
2022-08-03T01:59:15.990Z,0.00
2022-08-03T02:00:15.949Z,0.00
2022-08-03T02:01:16.021Z,0.00
2022-08-03T02:02:32.857Z,0.00
2022-08-03T02:03:17.128Z,0.00
2022-08-03T02:04:15.924Z,0.00
2022-08-03T02:05:16.244Z,0.00
2022-08-03T02:06:56.840Z,0.00
2022-08-03T02:07:16.884Z,0.00
2022-08-03T02:08:15.884Z,0.00
2022-08-03T02:09:15.849Z,0.00
2022-08-03T02:10:15.843Z,0.00
2022-08-03T02:11:16.062Z,0.00
2022-08-03T02:12:15.998Z,0.00
2022-08-03T02:13:15.813Z,0.00
2022-08-03T02:14:15.809Z,0.00
2022-08-03T02:15:15.788Z,0.00
2022-08-03T02:16:15.785Z,0.00
2022-08-03T02:17:16.065Z,0.00
2022-08-03T02:18:15.756Z,0.00
2022-08-03T02:19:15.734Z,0.00
2022-08-03T02:20:15.725Z,0.00
2022-08-03T02:21:55.670Z,0.00
2022-08-03T02:22:17.220Z,0.00
2022-08-03T02:23:15.701Z,0.00
2022-08-03T02:24:15.698Z,0.00
2022-08-03T02:25:15.976Z,0.00
2022-08-03T02:26:15.672Z,0.00
2022-08-03T02:27:15.658Z,0.00
2022-08-03T02:28:15.637Z,0.00
2022-08-03T02:29:15.631Z,0.00
2022-08-03T02:30:15.941Z,0.00
2022-08-03T02:31:15.612Z,0.00
2022-08-03T02:32:15.879Z,0.00
2022-08-03T02:33:15.582Z,0.00
2022-08-03T02:34:15.583Z,0.00
2022-08-03T02:35:15.868Z,0.00
2022-08-03T02:36:15.589Z,0.00
2022-08-03T02:37:15.520Z,0.00
2022-08-03T02:38:15.532Z,0.00
2022-08-03T02:39:15.502Z,0.00
2022-08-03T02:40:15.492Z,0.00
2022-08-03T02:41:15.683Z,0.00
2022-08-03T02:42:15.772Z,0.00
2022-08-03T02:43:15.453Z,0.00
2022-08-03T02:44:15.454Z,0.00
2022-08-03T02:45:15.447Z,0.00
2022-08-03T02:46:15.748Z,0.00
2022-08-03T02:47:15.419Z,0.00
2022-08-03T02:48:15.407Z,0.00
2022-08-03T02:49:42.667Z,0.00
2022-08-03T02:50:16.449Z,0.00
2022-08-03T02:51:15.585Z,0.00
2022-08-03T02:52:15.859Z,0.00
2022-08-03T02:53:15.361Z,0.00
2022-08-03T02:54:15.332Z,0.00
2022-08-03T02:55:15.317Z,0.00
2022-08-03T02:56:15.308Z,0.00
2022-08-03T02:57:15.559Z,0.00
2022-08-03T02:58:15.334Z,0.00
2022-08-03T02:59:15.274Z,0.00
2022-08-03T03:00:27.668Z,0.00
2022-08-03T03:01:16.317Z,0.00
2022-08-03T03:02:15.455Z,0.00
2022-08-03T03:03:15.257Z,0.00
2022-08-03T03:04:15.542Z,0.00
2022-08-03T03:05:53.197Z,0.00
2022-08-03T03:06:16.203Z,0.00
2022-08-03T03:07:15.193Z,0.00
2022-08-03T03:08:17.669Z,0.00
2022-08-03T03:09:15.464Z,0.00
2022-08-03T03:10:15.142Z,0.00
2022-08-03T03:11:15.154Z,0.00
2022-08-03T03:12:15.310Z,0.00
2022-08-03T03:13:15.125Z,0.00
2022-08-03T03:14:15.413Z,0.00
2022-08-03T03:15:16.097Z,0.00
2022-08-03T03:16:15.088Z,0.00
2022-08-03T03:17:15.079Z,0.00
2022-08-03T03:18:18.881Z,0.00
2022-08-03T03:19:16.268Z,0.00
2022-08-03T03:20:15.034Z,0.00
2022-08-03T03:21:15.316Z,0.00
2022-08-03T03:22:15.212Z,0.00
2022-08-03T03:23:14.996Z,0.00
2022-08-03T03:24:15.000Z,0.00
2022-08-03T03:25:14.997Z,0.00
2022-08-03T03:26:14.971Z,0.00
2022-08-03T03:27:16.787Z,0.00
2022-08-03T03:28:14.954Z,0.00
2022-08-03T03:29:15.178Z,0.00
2022-08-03T03:30:14.918Z,0.00
2022-08-03T03:31:14.913Z,0.00
2022-08-03T03:32:15.127Z,4.00
2022-08-03T03:33:14.881Z,0.00
2022-08-03T03:34:14.868Z,0.00
2022-08-03T03:35:15.190Z,0.00
2022-08-03T03:36:14.840Z,4.00
2022-08-03T03:37:14.830Z,0.00
2022-08-03T03:38:14.834Z,4.00
2022-08-03T03:39:15.922Z,4.00
2022-08-03T03:40:14.801Z,4.00
2022-08-03T03:41:14.816Z,4.00
2022-08-03T03:42:14.925Z,4.00
2022-08-03T03:43:14.775Z,8.00
2022-08-03T03:44:14.766Z,4.00
2022-08-03T03:45:14.747Z,4.00
2022-08-03T03:46:14.724Z,8.00
2022-08-03T03:47:14.964Z,8.00
2022-08-03T03:48:14.704Z,8.00
2022-08-03T03:49:14.749Z,8.00
2022-08-03T03:50:14.683Z,12.00
2022-08-03T03:51:14.678Z,12.00
2022-08-03T03:52:14.847Z,16.00
2022-08-03T03:53:14.665Z,16.00
2022-08-03T03:54:14.635Z,16.00
2022-08-03T03:55:14.638Z,16.00
2022-08-03T03:56:14.630Z,20.00
2022-08-03T03:57:14.595Z,24.00
2022-08-03T03:58:14.606Z,24.00
2022-08-03T03:59:14.591Z,24.00
2022-08-03T04:00:14.572Z,28.00
2022-08-03T04:01:14.612Z,28.00
2022-08-03T04:02:14.800Z,32.00
2022-08-03T04:03:14.541Z,32.00
2022-08-03T04:04:14.820Z,36.00
2022-08-03T04:05:17.164Z,36.00
2022-08-03T04:06:14.509Z,40.00
2022-08-03T04:07:14.510Z,44.00
2022-08-03T04:08:14.505Z,44.00
2022-08-03T04:09:14.786Z,48.00
2022-08-03T04:10:15.038Z,52.00
2022-08-03T04:11:14.467Z,56.00
2022-08-03T04:12:14.665Z,60.00
2022-08-03T04:13:14.424Z,60.00
2022-08-03T04:14:14.662Z,64.00
2022-08-03T04:15:14.397Z,64.00
2022-08-03T04:16:14.397Z,68.00
2022-08-03T04:17:14.377Z,72.00
2022-08-03T04:18:14.355Z,72.00
2022-08-03T04:19:14.346Z,72.00
2022-08-03T04:20:14.674Z,72.00
2022-08-03T04:21:14.346Z,80.00
2022-08-03T04:22:14.587Z,80.00
2022-08-03T04:23:15.741Z,80.00
2022-08-03T04:24:14.285Z,84.00
2022-08-03T04:25:14.267Z,88.00
2022-08-03T04:26:14.545Z,96.00
2022-08-03T04:27:14.259Z,100.00
2022-08-03T04:28:31.130Z,100.00
2022-08-03T04:29:15.239Z,104.00
2022-08-03T04:30:14.230Z,104.00
2022-08-03T04:31:14.211Z,104.00
2022-08-03T04:32:14.497Z,112.00
2022-08-03T04:33:14.178Z,120.00
2022-08-03T04:34:14.170Z,132.00
2022-08-03T04:35:14.173Z,136.00
2022-08-03T04:36:14.472Z,140.00
2022-08-03T04:37:14.142Z,144.00
2022-08-03T04:38:14.134Z,144.00
2022-08-03T04:39:14.424Z,144.00
2022-08-03T04:40:14.101Z,140.00
2022-08-03T04:41:14.084Z,148.00
2022-08-03T04:42:14.085Z,160.00
2022-08-03T04:43:14.075Z,156.00
2022-08-03T04:44:14.364Z,152.00
2022-08-03T04:45:14.055Z,152.00
2022-08-03T04:46:14.042Z,148.00
2022-08-03T04:47:14.004Z,152.00
2022-08-03T04:48:14.020Z,152.00
2022-08-03T04:49:14.714Z,156.00
2022-08-03T04:50:18.156Z,160.00
2022-08-03T04:51:14.978Z,160.00
2022-08-03T04:52:14.110Z,168.00
2022-08-03T04:53:13.936Z,172.00
2022-08-03T04:54:13.947Z,172.00
2022-08-03T04:55:13.921Z,176.00
2022-08-03T04:56:21.198Z,176.00
2022-08-03T04:57:22.259Z,176.00
2022-08-03T04:58:14.892Z,176.00
2022-08-03T04:59:13.888Z,176.00
2022-08-03T05:00:14.117Z,176.00
2022-08-03T05:01:13.914Z,176.00
2022-08-03T05:02:14.200Z,180.00
2022-08-03T05:03:19.546Z,184.00
2022-08-03T05:04:14.818Z,188.00
2022-08-03T05:05:13.810Z,188.00
2022-08-03T05:06:13.796Z,192.00
2022-08-03T05:07:13.790Z,196.00
2022-08-03T05:08:13.766Z,192.00
2022-08-03T05:09:14.067Z,192.00
2022-08-03T05:10:16.459Z,200.00
2022-08-03T05:11:13.727Z,196.00
2022-08-03T05:12:13.819Z,196.00
2022-08-03T05:13:13.729Z,196.00
2022-08-03T05:14:13.713Z,196.00
2022-08-03T05:15:13.685Z,196.00
2022-08-03T05:16:13.670Z,192.00
2022-08-03T05:17:13.673Z,200.00
2022-08-03T05:18:14.437Z,208.00
2022-08-03T05:19:13.923Z,208.00
2022-08-03T05:20:13.633Z,208.00
2022-08-03T05:21:13.633Z,212.00
2022-08-03T05:22:13.722Z,216.00
2022-08-03T05:23:13.598Z,220.00
2022-08-03T05:24:13.903Z,220.00
2022-08-03T05:25:17.415Z,220.00
2022-08-03T05:26:14.573Z,220.00
2022-08-03T05:27:13.545Z,224.00
2022-08-03T05:28:13.564Z,228.00
2022-08-03T05:29:13.537Z,232.00
2022-08-03T05:30:30.569Z,240.00
2022-08-03T05:31:14.509Z,240.00
2022-08-03T05:32:13.496Z,244.00
2022-08-03T05:33:13.497Z,240.00
2022-08-03T05:34:13.467Z,236.00
2022-08-03T05:35:57.206Z,236.00
2022-08-03T05:36:14.756Z,236.00
2022-08-03T05:37:13.452Z,236.00
2022-08-03T05:38:13.417Z,220.00
2022-08-03T05:39:14.408Z,224.00
2022-08-03T05:40:13.411Z,240.00
2022-08-03T05:41:21.522Z,248.00
2022-08-03T05:42:14.909Z,256.00
2022-08-03T05:43:13.470Z,256.00
2022-08-03T05:44:25.910Z,248.00
2022-08-03T05:45:13.373Z,256.00
2022-08-03T05:46:13.400Z,268.00
2022-08-03T05:47:13.316Z,272.00
2022-08-03T05:48:13.323Z,276.00
2022-08-03T05:49:13.361Z,288.00
2022-08-03T05:50:13.282Z,284.00
2022-08-03T05:51:13.285Z,288.00
2022-08-03T05:52:22.589Z,300.00
2022-08-03T05:53:14.477Z,308.00
2022-08-03T05:54:14.693Z,312.00
2022-08-03T05:55:13.223Z,296.00
2022-08-03T05:56:15.946Z,280.00
2022-08-03T05:57:13.545Z,260.00
2022-08-03T05:58:13.208Z,260.00
2022-08-03T05:59:37.067Z,264.00
2022-08-03T06:00:14.176Z,264.00
2022-08-03T06:01:13.292Z,264.00
2022-08-03T06:02:13.159Z,260.00
2022-08-03T06:03:13.147Z,256.00
2022-08-03T06:04:13.119Z,256.00
2022-08-03T06:05:13.133Z,256.00
2022-08-03T06:06:13.098Z,252.00
2022-08-03T06:07:13.088Z,260.00
2022-08-03T06:08:15.442Z,268.00
2022-08-03T06:09:13.073Z,272.00
2022-08-03T06:10:36.260Z,284.00
2022-08-03T06:11:14.041Z,288.00
2022-08-03T06:12:14.323Z,276.00
2022-08-03T06:13:13.021Z,268.00
2022-08-03T06:14:13.015Z,276.00
2022-08-03T06:15:12.992Z,284.00
2022-08-03T06:16:12.988Z,300.00
2022-08-03T06:17:13.194Z,304.00
2022-08-03T06:18:13.316Z,308.00
2022-08-03T06:19:13.310Z,308.00
2022-08-03T06:20:12.946Z,312.00
2022-08-03T06:21:15.170Z,328.00
2022-08-03T06:22:12.954Z,348.00
2022-08-03T06:23:17.657Z,356.00
2022-08-03T06:24:14.187Z,340.00
2022-08-03T06:25:13.095Z,324.00
2022-08-03T06:26:13.360Z,312.00
2022-08-03T06:27:12.854Z,308.00
2022-08-03T06:28:35.165Z,304.00
2022-08-03T06:29:13.870Z,300.00
2022-08-03T06:30:12.839Z,300.00
2022-08-03T06:31:12.821Z,292.00
2022-08-03T06:32:12.796Z,308.00
2022-08-03T06:33:12.786Z,312.00
2022-08-03T06:34:33.228Z,312.00
2022-08-03T06:35:13.779Z,312.00
2022-08-03T06:36:12.759Z,312.00
2022-08-03T06:38:23.803Z,308.00
2022-08-03T06:39:23.970Z,304.00
2022-08-03T06:40:24.577Z,316.00
2022-08-03T06:41:23.712Z,308.00
2022-08-03T06:42:23.693Z,320.00
2022-08-03T06:43:23.782Z,316.00
2022-08-03T06:44:23.668Z,324.00
2022-08-03T06:45:23.657Z,328.00
2022-08-03T06:46:23.646Z,332.00
2022-08-03T06:47:23.635Z,340.00
2022-08-03T06:48:23.640Z,348.00
2022-08-03T06:49:23.655Z,348.00
2022-08-03T06:50:26.330Z,352.00
2022-08-03T06:51:23.578Z,344.00
2022-08-03T06:52:37.141Z,356.00
2022-08-03T06:53:24.548Z,352.00
2022-08-03T06:54:23.751Z,348.00
2022-08-03T06:55:23.541Z,352.00
2022-08-03T06:56:23.510Z,352.00
2022-08-03T06:57:23.523Z,356.00
2022-08-03T06:58:23.504Z,360.00
2022-08-03T07:00:07.446Z,364.00
2022-08-03T07:00:24.629Z,376.00
2022-08-03T07:01:23.512Z,388.00
2022-08-03T07:02:23.462Z,400.00
2022-08-03T07:03:23.444Z,408.00
2022-08-03T07:04:23.411Z,412.00
2022-08-03T07:05:23.724Z,412.00
2022-08-03T07:10:10.382Z,424.00
2022-08-03T07:11:10.353Z,424.00
2022-08-03T07:12:10.379Z,420.00
2022-08-03T07:13:10.334Z,424.00
2022-08-03T07:14:10.300Z,424.00
2022-08-03T07:15:20.139Z,408.00
2022-08-03T07:16:11.306Z,420.00
2022-08-03T07:17:11.628Z,452.00
2022-08-03T07:18:10.573Z,484.00
2022-08-03T07:19:10.266Z,488.00
2022-08-03T07:20:10.244Z,480.00
2022-08-03T07:21:10.235Z,468.00
2022-08-03T07:22:10.202Z,452.00
2022-08-03T07:23:10.480Z,440.00
2022-08-03T07:24:15.148Z,432.00
2022-08-03T07:25:10.195Z,416.00
2022-08-03T07:26:10.168Z,440.00
2022-08-03T07:27:10.154Z,452.00
2022-08-03T07:28:10.139Z,448.00
2022-08-03T07:29:15.186Z,420.00
2022-08-03T07:30:11.107Z,424.00
2022-08-03T07:31:10.122Z,428.00
2022-08-03T07:32:10.162Z,424.00
2022-08-03T07:33:10.096Z,428.00
2022-08-03T07:34:10.084Z,428.00
2022-08-03T07:35:24.178Z,428.00
2022-08-03T07:36:11.051Z,432.00
2022-08-03T07:37:10.029Z,424.00
2022-08-03T07:38:10.026Z,424.00
2022-08-03T07:39:17.421Z,428.00
2022-08-03T07:40:11.025Z,392.00
2022-08-03T07:41:10.211Z,436.00
2022-08-03T07:42:10.087Z,452.00
2022-08-03T07:43:09.962Z,456.00
2022-08-03T07:44:09.961Z,464.00
2022-08-03T07:45:09.956Z,464.00
2022-08-03T07:46:10.951Z,460.00
2022-08-03T07:47:10.977Z,448.00
2022-08-03T07:48:12.499Z,444.00
2022-08-03T07:49:09.928Z,396.00
2022-08-03T07:50:09.965Z,456.00
2022-08-03T07:51:09.886Z,428.00
2022-08-03T07:52:09.887Z,420.00
2022-08-03T07:53:09.858Z,424.00
2022-08-03T07:54:09.850Z,468.00
2022-08-03T07:55:09.859Z,480.00
2022-08-03T07:56:10.775Z,480.00
2022-08-03T07:57:10.779Z,472.00
2022-08-03T07:58:09.933Z,468.00
2022-08-03T07:59:09.768Z,428.00
2022-08-03T08:00:09.769Z,484.00
2022-08-03T08:01:09.805Z,484.00
2022-08-03T08:02:10.799Z,460.00
2022-08-03T08:03:09.772Z,480.00
2022-08-03T08:04:09.743Z,472.00
2022-08-03T08:05:09.722Z,480.00
2022-08-03T08:06:09.690Z,500.00
2022-08-03T08:07:09.694Z,484.00
2022-08-03T08:08:09.677Z,480.00
2022-08-03T08:09:09.681Z,496.00
2022-08-03T08:10:09.650Z,488.00
2022-08-03T08:11:09.655Z,452.00
2022-08-03T08:12:14.912Z,448.00
2022-08-03T08:13:10.637Z,480.00
2022-08-03T08:14:10.427Z,472.00
2022-08-03T08:15:09.635Z,372.00
2022-08-03T08:16:09.606Z,340.00
2022-08-03T08:17:09.564Z,408.00
2022-08-03T08:18:09.677Z,436.00
2022-08-03T08:19:09.545Z,480.00
2022-08-03T08:20:09.547Z,528.00
2022-08-03T08:21:09.539Z,520.00
2022-08-03T08:22:09.521Z,520.00
2022-08-03T08:23:19.999Z,528.00
2022-08-03T08:24:13.395Z,496.00
2022-08-03T08:25:10.492Z,500.00
2022-08-03T08:26:09.467Z,508.00
2022-08-03T08:27:09.472Z,500.00
2022-08-03T08:28:30.756Z,540.00
2022-08-03T08:29:10.450Z,544.00
2022-08-03T08:30:12.200Z,528.00
2022-08-03T08:31:11.373Z,552.00
2022-08-03T08:32:09.401Z,524.00
2022-08-03T08:33:15.705Z,444.00
2022-08-03T08:34:10.372Z,384.00
2022-08-03T08:35:09.376Z,352.00
2022-08-03T08:36:13.392Z,356.00
2022-08-03T08:37:10.342Z,428.00
2022-08-03T08:38:09.334Z,500.00
2022-08-03T08:39:09.338Z,560.00
2022-08-03T08:40:09.313Z,584.00
2022-08-03T08:41:09.329Z,596.00
2022-08-03T08:42:09.290Z,604.00
2022-08-03T08:43:09.288Z,624.00
2022-08-03T08:44:09.591Z,636.00
2022-08-03T08:45:09.251Z,636.00
2022-08-03T08:46:09.249Z,648.00
2022-08-03T08:47:09.858Z,620.00
2022-08-03T08:48:09.219Z,620.00
2022-08-03T08:49:09.531Z,604.00
2022-08-03T08:50:15.533Z,568.00
2022-08-03T08:51:10.489Z,616.00
2022-08-03T08:52:29.492Z,628.00
2022-08-03T08:53:11.651Z,648.00
2022-08-03T08:54:10.140Z,656.00
2022-08-03T08:55:09.132Z,544.00
2022-08-03T08:56:09.120Z,644.00
2022-08-03T08:57:33.011Z,696.00
2022-08-03T08:58:10.106Z,772.00
2022-08-03T08:59:09.162Z,724.00
2022-08-03T09:00:09.081Z,716.00
2022-08-03T09:01:09.413Z,728.00
2022-08-03T09:02:09.686Z,748.00
2022-08-03T09:03:09.047Z,808.00
2022-08-03T09:04:09.024Z,732.00
2022-08-03T09:05:09.847Z,728.00
2022-08-03T09:06:09.024Z,740.00
2022-08-03T09:07:20.129Z,732.00
2022-08-03T09:08:09.977Z,812.00
2022-08-03T09:09:09.000Z,880.00
2022-08-03T09:10:13.487Z,792.00
2022-08-03T09:11:08.958Z,792.00
2022-08-03T09:12:37.204Z,748.00
2022-08-03T09:13:10.813Z,728.00
2022-08-03T09:14:09.241Z,708.00
2022-08-03T09:15:16.926Z,696.00
2022-08-03T09:16:09.894Z,688.00
2022-08-03T09:17:08.892Z,692.00
2022-08-03T09:18:09.858Z,676.00
2022-08-03T09:19:08.869Z,676.00
2022-08-03T09:20:08.831Z,668.00
2022-08-03T09:21:29.611Z,708.00
2022-08-03T09:22:09.812Z,672.00
2022-08-03T09:23:59.016Z,684.00
2022-08-03T09:24:25.730Z,668.00
2022-08-03T09:25:24.193Z,664.00
2022-08-03T09:26:11.725Z,664.00
2022-08-03T09:27:10.742Z,700.00
2022-08-03T09:28:09.114Z,684.00
2022-08-03T09:29:13.863Z,696.00
2022-08-03T09:30:33.284Z,704.00
2022-08-03T09:31:09.727Z,712.00
2022-08-03T09:32:08.711Z,724.00
2022-08-03T09:33:08.809Z,728.00
2022-08-03T09:34:08.689Z,780.00
2022-08-03T09:35:09.486Z,728.00
2022-08-03T09:36:08.658Z,752.00
2022-08-03T09:37:08.639Z,764.00
2022-08-03T09:38:13.562Z,756.00
2022-08-03T09:39:10.459Z,764.00
2022-08-03T09:40:08.653Z,736.00
2022-08-03T09:41:08.599Z,744.00
2022-08-03T09:42:08.594Z,732.00
2022-08-03T09:43:08.584Z,728.00
2022-08-03T09:44:08.575Z,724.00
2022-08-03T09:45:09.863Z,732.00
2022-08-03T09:46:08.555Z,736.00
2022-08-03T09:47:08.545Z,756.00
2022-08-03T09:48:08.518Z,756.00
2022-08-03T09:49:11.519Z,764.00
2022-08-03T09:50:08.515Z,772.00
2022-08-03T09:52:11.058Z,756.00
2022-08-03T09:52:33.284Z,756.00
2022-08-03T09:53:09.464Z,764.00
2022-08-03T09:54:16.326Z,796.00
2022-08-03T09:56:34.855Z,808.00
2022-08-03T09:56:34.857Z,792.00
2022-08-03T09:57:09.417Z,792.00
2022-08-03T09:58:08.732Z,792.00
2022-08-03T09:59:08.389Z,808.00
2022-08-03T10:00:08.583Z,816.00
2022-08-03T10:01:08.431Z,832.00
2022-08-03T10:02:09.372Z,872.00
2022-08-03T10:03:08.684Z,896.00
2022-08-03T10:04:09.343Z,948.00
2022-08-03T10:05:08.350Z,992.00
2022-08-03T10:06:08.324Z,1048.00
2022-08-03T10:07:08.304Z,1064.00
2022-08-03T10:08:08.303Z,1184.00
2022-08-03T10:09:08.284Z,1096.00
2022-08-03T10:10:30.013Z,1064.00
2022-08-03T10:11:09.263Z,980.00
2022-08-03T10:12:08.259Z,948.00
2022-08-03T10:13:08.236Z,900.00
2022-08-03T10:14:08.260Z,916.00
2022-08-03T10:15:08.877Z,924.00
2022-08-03T10:16:23.606Z,876.00
2022-08-03T10:17:09.209Z,948.00
2022-08-03T10:18:08.190Z,940.00
2022-08-03T10:19:08.166Z,916.00
2022-08-03T10:20:08.571Z,916.00
2022-08-03T10:21:08.154Z,948.00
2022-08-03T10:22:08.155Z,960.00
2022-08-03T10:23:08.141Z,1072.00
2022-08-03T10:24:08.419Z,1036.00
2022-08-03T10:25:08.118Z,1036.00
2022-08-03T10:26:08.135Z,1084.00
2022-08-03T10:27:08.921Z,1116.00
2022-08-03T10:28:08.093Z,1024.00
2022-08-03T10:29:12.873Z,864.00
2022-08-03T10:30:08.054Z,956.00
2022-08-03T10:31:08.753Z,872.00
2022-08-03T10:32:08.047Z,824.00
2022-08-03T10:33:12.304Z,776.00
2022-08-03T10:34:09.011Z,820.00
2022-08-03T10:35:20.388Z,832.00
2022-08-03T10:36:09.825Z,832.00
2022-08-03T10:37:07.989Z,896.00
2022-08-03T10:38:08.108Z,852.00
2022-08-03T10:39:15.990Z,888.00
2022-08-03T10:40:08.960Z,904.00
2022-08-03T10:41:08.001Z,916.00
2022-08-03T10:42:14.460Z,888.00
2022-08-03T10:43:08.898Z,852.00
2022-08-03T10:44:07.902Z,888.00
2022-08-03T10:45:07.902Z,900.00
2022-08-03T10:46:07.860Z,908.00
2022-08-03T10:47:07.898Z,932.00
2022-08-03T10:48:07.841Z,948.00
2022-08-03T10:49:08.927Z,980.00
2022-08-03T10:50:08.765Z,1000.00
2022-08-03T10:51:07.855Z,1024.00
2022-08-03T10:52:13.233Z,1028.00
2022-08-03T10:53:09.013Z,1024.00
2022-08-03T10:54:07.815Z,1024.00
2022-08-03T10:55:09.979Z,1092.00
2022-08-03T10:56:07.768Z,1056.00
2022-08-03T10:57:13.641Z,1056.00
2022-08-03T10:58:11.245Z,1064.00
2022-08-03T10:59:08.918Z,1060.00
2022-08-03T11:00:07.891Z,1088.00
2022-08-03T11:01:07.765Z,1120.00
2022-08-03T11:02:07.696Z,1100.00
2022-08-03T11:03:07.657Z,1092.00
2022-08-03T11:04:11.882Z,1076.00
2022-08-03T11:05:08.952Z,1076.00
2022-08-03T11:06:07.652Z,1068.00
2022-08-03T11:07:07.619Z,1048.00
2022-08-03T11:08:07.663Z,1060.00
2022-08-03T11:09:07.614Z,1032.00
2022-08-03T11:10:10.530Z,1016.00
2022-08-03T11:11:07.881Z,1016.00
2022-08-03T11:12:07.562Z,1008.00
2022-08-03T11:13:07.572Z,1040.00
2022-08-03T11:14:07.629Z,1064.00
2022-08-03T11:15:07.578Z,1152.00
2022-08-03T11:16:12.457Z,1120.00
2022-08-03T11:17:15.509Z,1052.00
2022-08-03T11:18:08.504Z,1048.00
2022-08-03T11:19:07.497Z,948.00
2022-08-03T11:20:07.475Z,1016.00
2022-08-03T11:21:07.465Z,1084.00
2022-08-03T11:22:07.728Z,1092.00
2022-08-03T11:23:07.436Z,1064.00
2022-08-03T11:24:07.444Z,1048.00
2022-08-03T11:25:07.428Z,1016.00
2022-08-03T11:26:07.430Z,940.00
2022-08-03T11:27:07.389Z,1004.00
2022-08-03T11:28:07.419Z,1016.00
2022-08-03T11:29:07.369Z,1004.00
2022-08-03T11:30:07.361Z,952.00
2022-08-03T11:31:07.363Z,960.00
2022-08-03T11:32:07.364Z,1024.00
2022-08-03T11:33:07.343Z,1040.00
2022-08-03T11:34:07.311Z,1136.00
2022-08-03T11:35:07.534Z,1088.00
2022-08-03T11:36:07.292Z,1124.00
2022-08-03T11:37:08.117Z,952.00
2022-08-03T11:38:07.269Z,924.00
2022-08-03T11:39:07.252Z,1164.00
2022-08-03T11:40:07.553Z,1136.00
2022-08-03T11:41:07.553Z,1100.00
2022-08-03T11:42:07.889Z,1128.00
2022-08-03T11:43:07.215Z,1128.00
2022-08-03T11:44:07.195Z,1032.00
2022-08-03T11:45:07.210Z,916.00
2022-08-03T11:46:07.518Z,1080.00
2022-08-03T11:47:07.178Z,1072.00
2022-08-03T11:48:07.164Z,1024.00
2022-08-03T11:49:10.519Z,964.00
2022-08-03T11:50:07.162Z,1092.00
2022-08-03T11:51:07.438Z,824.00
2022-08-03T11:52:07.116Z,1036.00
2022-08-03T11:53:07.091Z,1048.00
2022-08-03T11:54:07.096Z,1092.00
2022-08-03T11:55:07.069Z,1104.00
2022-08-03T11:56:12.555Z,1136.00
2022-08-03T11:57:08.373Z,1176.00
2022-08-03T11:59:15.241Z,1172.00
2022-08-03T11:59:19.866Z,1096.00
2022-08-03T12:00:08.955Z,1124.00
2022-08-03T12:01:07.005Z,1160.00
2022-08-03T12:02:07.408Z,1172.00
2022-08-03T12:03:07.063Z,1156.00
2022-08-03T12:04:06.990Z,1124.00
2022-08-03T12:05:06.969Z,1100.00
2022-08-03T12:06:06.945Z,1088.00
2022-08-03T12:07:07.189Z,1080.00
2022-08-03T12:08:07.277Z,1084.00
2022-08-03T12:09:06.931Z,1072.00
2022-08-03T12:10:06.995Z,1152.00
2022-08-03T12:11:06.888Z,1056.00
2022-08-03T12:12:06.881Z,1060.00
2022-08-03T12:14:36.785Z,1048.00
2022-08-03T12:14:49.197Z,1068.00
2022-08-03T12:15:08.041Z,1036.00
2022-08-03T12:16:06.831Z,1032.00
2022-08-03T12:17:06.824Z,1056.00
2022-08-03T12:18:06.811Z,1060.00
2022-08-03T12:19:06.940Z,1072.00
2022-08-03T12:20:06.899Z,1096.00
2022-08-03T12:21:07.193Z,1064.00
2022-08-03T12:22:06.764Z,1084.00
2022-08-03T12:23:06.885Z,1088.00
2022-08-03T12:24:06.985Z,1084.00
2022-08-03T12:25:06.750Z,1088.00
2022-08-03T12:26:06.716Z,1092.00
2022-08-03T12:27:06.720Z,1096.00
2022-08-03T12:28:06.695Z,1100.00
2022-08-03T12:29:08.009Z,1128.00
2022-08-03T12:30:06.712Z,1128.00
2022-08-03T12:31:06.672Z,1144.00
2022-08-03T12:32:06.852Z,1128.00
2022-08-03T12:33:06.642Z,1104.00
2022-08-03T12:34:06.655Z,1044.00
2022-08-03T12:35:06.934Z,1040.00
2022-08-03T12:36:06.603Z,1080.00
2022-08-03T12:37:22.221Z,1140.00
2022-08-03T12:38:07.605Z,1144.00
2022-08-03T12:39:06.588Z,1168.00
2022-08-03T12:40:10.565Z,1168.00
2022-08-03T12:41:06.876Z,1088.00
2022-08-03T12:42:06.536Z,1040.00
2022-08-03T12:43:06.526Z,1068.00
2022-08-03T12:44:06.529Z,1120.00
2022-08-03T12:45:06.519Z,1120.00